Terminal Aerodrome Forecast
Issued by NWS Tampa Bay Area, FL

Home | Current Version | Previous Version | Text Only | Print | Product List | Glossary On
Versions: 1 2 3 4 5 6 7 8 9 10 11 12 13 14 15 16 17 18 19
000
FTUS42 KTBW 270523
TAFFMY
TAF
KFMY 270523Z 2706/2806 07009KT P6SM SCT250
     FM271400 11010KT P6SM FEW040 SCT250
     FM271700 15010G15KT P6SM SCT050 SCT250
     FM272000 18008KT P6SM FEW040 SCT250
     FM280100 VRB04KT P6SM SCT250=

USA.gov is the U.S. government's official web portal to all federal, state and local government web resources and services.